sensor_id;sensor_type;location;lat;lon;timestamp;P1;durP1;ratioP1;P2;durP2;ratioP2
22240;SDS011;11289;52.524;13.694;2023-03-24T00:00:46;4.68;;;3.42;;
22240;SDS011;11289;52.524;13.694;2023-03-24T00:03:13;6.10;;;2.85;;
22240;SDS011;11289;52.524;13.694;2023-03-24T00:05:41;6.63;;;3.30;;
22240;SDS011;11289;52.524;13.694;2023-03-24T00:08:08;6.22;;;3.65;;
22240;SDS011;11289;52.524;13.694;2023-03-24T00:10:34;5.18;;;3.58;;
22240;SDS011;11289;52.524;13.694;2023-03-24T00:13:02;5.90;;;3.20;;
22240;SDS011;11289;52.524;13.694;2023-03-24T00:15:28;5.47;;;3.13;;
22240;SDS011;11289;52.524;13.694;2023-03-24T00:17:55;5.20;;;2.83;;
22240;SDS011;11289;52.524;13.694;2023-03-24T00:20:22;6.05;;;3.40;;
22240;SDS011;11289;52.524;13.694;2023-03-24T00:22:51;4.72;;;3.30;;
22240;SDS011;11289;52.524;13.694;2023-03-24T00:25:24;4.10;;;2.80;;
22240;SDS011;11289;52.524;13.694;2023-03-24T00:27:53;5.05;;;3.17;;
22240;SDS011;11289;52.524;13.694;2023-03-24T00:30:20;4.10;;;3.13;;
22240;SDS011;11289;52.524;13.694;2023-03-24T00:32:47;4.75;;;3.38;;
22240;SDS011;11289;52.524;13.694;2023-03-24T00:35:14;4.25;;;3.05;;
22240;SDS011;11289;52.524;13.694;2023-03-24T00:37:42;8.10;;;3.35;;
22240;SDS011;11289;52.524;13.694;2023-03-24T00:40:10;6.03;;;3.08;;
22240;SDS011;11289;52.524;13.694;2023-03-24T00:42:41;4.20;;;2.85;;
22240;SDS011;11289;52.524;13.694;2023-03-24T00:45:11;2.88;;;2.63;;
22240;SDS011;11289;52.524;13.694;2023-03-24T00:47:39;5.10;;;2.72;;
22240;SDS011;11289;52.524;13.694;2023-03-24T00:50:07;5.82;;;2.80;;
22240;SDS011;11289;52.524;13.694;2023-03-24T00:52:36;3.83;;;2.92;;
22240;SDS011;11289;52.524;13.694;2023-03-24T00:55:09;3.20;;;2.85;;
22240;SDS011;11289;52.524;13.694;2023-03-24T00:57:40;4.72;;;2.67;;
22240;SDS011;11289;52.524;13.694;2023-03-24T01:00:14;4.80;;;2.83;;
22240;SDS011;11289;52.524;13.694;2023-03-24T01:02:43;6.10;;;2.90;;
22240;SDS011;11289;52.524;13.694;2023-03-24T01:05:11;3.55;;;2.60;;
22240;SDS011;11289;52.524;13.694;2023-03-24T01:07:39;4.70;;;2.83;;
22240;SDS011;11289;52.524;13.694;2023-03-24T01:10:06;3.20;;;2.75;;
22240;SDS011;11289;52.524;13.694;2023-03-24T01:12:37;4.13;;;2.67;;
22240;SDS011;11289;52.524;13.694;2023-03-24T01:15:05;5.07;;;2.90;;
22240;SDS011;11289;52.524;13.694;2023-03-24T01:17:33;6.10;;;3.00;;
22240;SDS011;11289;52.524;13.694;2023-03-24T01:19:59;4.28;;;3.00;;
22240;SDS011;11289;52.524;13.694;2023-03-24T01:22:31;4.28;;;2.60;;
22240;SDS011;11289;52.524;13.694;2023-03-24T01:25:06;2.83;;;2.50;;
22240;SDS011;11289;52.524;13.694;2023-03-24T01:27:34;5.90;;;2.90;;
22240;SDS011;11289;52.524;13.694;2023-03-24T01:30:05;4.95;;;2.83;;
22240;SDS011;11289;52.524;13.694;2023-03-24T01:32:32;3.97;;;2.90;;
22240;SDS011;11289;52.524;13.694;2023-03-24T01:34:58;3.00;;;2.70;;
22240;SDS011;11289;52.524;13.694;2023-03-24T01:37:24;3.60;;;2.92;;
22240;SDS011;11289;52.524;13.694;2023-03-24T01:39:50;2.75;;;2.28;;
22240;SDS011;11289;52.524;13.694;2023-03-24T01:42:17;3.78;;;2.58;;
22240;SDS011;11289;52.524;13.694;2023-03-24T01:44:47;4.35;;;3.05;;
22240;SDS011;11289;52.524;13.694;2023-03-24T01:47:14;2.70;;;2.45;;
22240;SDS011;11289;52.524;13.694;2023-03-24T01:49:51;3.92;;;2.60;;
22240;SDS011;11289;52.524;13.694;2023-03-24T01:52:22;3.55;;;2.65;;
22240;SDS011;11289;52.524;13.694;2023-03-24T01:54:52;2.63;;;2.25;;
22240;SDS011;11289;52.524;13.694;2023-03-24T01:57:41;3.22;;;2.80;;
22240;SDS011;11289;52.524;13.694;2023-03-24T02:00:11;3.55;;;2.40;;
22240;SDS011;11289;52.524;13.694;2023-03-24T02:02:40;2.80;;;2.33;;
22240;SDS011;11289;52.524;13.694;2023-03-24T02:05:10;3.78;;;3.00;;
22240;SDS011;11289;52.524;13.694;2023-03-24T02:10:10;2.92;;;2.35;;
22240;SDS011;11289;52.524;13.694;2023-03-24T02:12:40;3.17;;;2.67;;
22240;SDS011;11289;52.524;13.694;2023-03-24T02:15:08;4.05;;;2.90;;
22240;SDS011;11289;52.524;13.694;2023-03-24T02:41:44;4.85;;;3.38;;
22240;SDS011;11289;52.524;13.694;2023-03-24T02:44:25;6.40;;;3.08;;
22240;SDS011;11289;52.524;13.694;2023-03-24T02:50:06;6.47;;;3.22;;
22240;SDS011;11289;52.524;13.694;2023-03-24T02:57:42;4.20;;;2.85;;
22240;SDS011;11289;52.524;13.694;2023-03-24T03:00:25;5.20;;;3.50;;
22240;SDS011;11289;52.524;13.694;2023-03-24T03:03:07;3.80;;;2.88;;
22240;SDS011;11289;52.524;13.694;2023-03-24T03:06:21;4.22;;;3.15;;
22240;SDS011;11289;52.524;13.694;2023-03-24T03:08:32;5.50;;;3.55;;
22240;SDS011;11289;52.524;13.694;2023-03-24T03:11:01;5.03;;;3.33;;
22240;SDS011;11289;52.524;13.694;2023-03-24T03:13:31;4.00;;;3.60;;
22240;SDS011;11289;52.524;13.694;2023-03-24T03:16:06;6.13;;;3.17;;
22240;SDS011;11289;52.524;13.694;2023-03-24T03:18:42;4.28;;;3.10;;
22240;SDS011;11289;52.524;13.694;2023-03-24T03:21:14;3.28;;;2.90;;
22240;SDS011;11289;52.524;13.694;2023-03-24T03:23:56;5.20;;;3.92;;
22240;SDS011;11289;52.524;13.694;2023-03-24T03:26:26;5.18;;;3.70;;
22240;SDS011;11289;52.524;13.694;2023-03-24T03:28:57;5.28;;;3.33;;
22240;SDS011;11289;52.524;13.694;2023-03-24T03:31:38;3.47;;;3.13;;
22240;SDS011;11289;52.524;13.694;2023-03-24T03:39:18;4.35;;;3.03;;
22240;SDS011;11289;52.524;13.694;2023-03-24T03:41:50;4.55;;;3.45;;
22240;SDS011;11289;52.524;13.694;2023-03-24T03:44:16;5.20;;;3.67;;
22240;SDS011;11289;52.524;13.694;2023-03-24T03:46:42;3.45;;;3.15;;
22240;SDS011;11289;52.524;13.694;2023-03-24T03:49:09;4.32;;;3.92;;
22240;SDS011;11289;52.524;13.694;2023-03-24T03:51:35;4.55;;;3.30;;
22240;SDS011;11289;52.524;13.694;2023-03-24T03:54:02;4.20;;;3.38;;
22240;SDS011;11289;52.524;13.694;2023-03-24T03:56:32;3.92;;;3.50;;
22240;SDS011;11289;52.524;13.694;2023-03-24T03:59:00;4.25;;;3.58;;
22240;SDS011;11289;52.524;13.694;2023-03-24T04:01:28;5.15;;;3.38;;
22240;SDS011;11289;52.524;13.694;2023-03-24T04:12:03;6.90;;;3.97;;
22240;SDS011;11289;52.524;13.694;2023-03-24T04:22:58;4.03;;;3.30;;
22240;SDS011;11289;52.524;13.694;2023-03-24T04:25:58;5.45;;;3.35;;
22240;SDS011;11289;52.524;13.694;2023-03-24T04:28:30;4.15;;;3.75;;
22240;SDS011;11289;52.524;13.694;2023-03-24T04:36:40;4.65;;;3.90;;
22240;SDS011;11289;52.524;13.694;2023-03-24T04:39:11;4.55;;;3.80;;
22240;SDS011;11289;52.524;13.694;2023-03-24T04:41:40;4.93;;;3.65;;
22240;SDS011;11289;52.524;13.694;2023-03-24T04:44:07;5.10;;;4.53;;
22240;SDS011;11289;52.524;13.694;2023-03-24T04:46:35;7.60;;;4.10;;
22240;SDS011;11289;52.524;13.694;2023-03-24T04:49:03;6.43;;;4.32;;
22240;SDS011;11289;52.524;13.694;2023-03-24T04:51:29;6.50;;;4.28;;
22240;SDS011;11289;52.524;13.694;2023-03-24T04:53:56;4.45;;;4.05;;
22240;SDS011;11289;52.524;13.694;2023-03-24T04:56:33;5.50;;;5.00;;
22240;SDS011;11289;52.524;13.694;2023-03-24T04:59:16;6.20;;;4.85;;
22240;SDS011;11289;52.524;13.694;2023-03-24T05:01:43;7.18;;;4.72;;
22240;SDS011;11289;52.524;13.694;2023-03-24T05:04:20;5.63;;;4.18;;
22240;SDS011;11289;52.524;13.694;2023-03-24T05:06:48;7.55;;;5.00;;
22240;SDS011;11289;52.524;13.694;2023-03-24T05:09:17;7.00;;;5.00;;
22240;SDS011;11289;52.524;13.694;2023-03-24T05:11:46;5.20;;;4.70;;
22240;SDS011;11289;52.524;13.694;2023-03-24T05:14:13;7.95;;;5.47;;
22240;SDS011;11289;52.524;13.694;2023-03-24T05:16:40;10.13;;;5.28;;
22240;SDS011;11289;52.524;13.694;2023-03-24T05:19:06;6.78;;;4.97;;
22240;SDS011;11289;52.524;13.694;2023-03-24T05:21:33;9.27;;;5.70;;
22240;SDS011;11289;52.524;13.694;2023-03-24T05:23:59;8.23;;;5.57;;
22240;SDS011;11289;52.524;13.694;2023-03-24T05:26:25;8.93;;;4.75;;
22240;SDS011;11289;52.524;13.694;2023-03-24T05:28:51;7.95;;;4.70;;
22240;SDS011;11289;52.524;13.694;2023-03-24T05:31:18;7.28;;;4.70;;
22240;SDS011;11289;52.524;13.694;2023-03-24T05:33:44;9.50;;;5.90;;
22240;SDS011;11289;52.524;13.694;2023-03-24T05:36:11;10.00;;;5.05;;
22240;SDS011;11289;52.524;13.694;2023-03-24T05:38:38;5.68;;;4.90;;
22240;SDS011;11289;52.524;13.694;2023-03-24T05:41:04;9.38;;;4.97;;
22240;SDS011;11289;52.524;13.694;2023-03-24T05:43:30;7.03;;;5.50;;
22240;SDS011;11289;52.524;13.694;2023-03-24T05:45:56;6.18;;;5.38;;
22240;SDS011;11289;52.524;13.694;2023-03-24T05:48:25;7.20;;;5.47;;
22240;SDS011;11289;52.524;13.694;2023-03-24T05:50:51;6.40;;;4.82;;
22240;SDS011;11289;52.524;13.694;2023-03-24T05:53:18;9.18;;;5.30;;
22240;SDS011;11289;52.524;13.694;2023-03-24T05:55:44;6.57;;;5.05;;
22240;SDS011;11289;52.524;13.694;2023-03-24T05:58:10;6.03;;;5.03;;
22240;SDS011;11289;52.524;13.694;2023-03-24T06:00:37;6.50;;;4.70;;
22240;SDS011;11289;52.524;13.694;2023-03-24T06:03:03;6.60;;;5.38;;
22240;SDS011;11289;52.524;13.694;2023-03-24T06:05:30;6.88;;;4.13;;
22240;SDS011;11289;52.524;13.694;2023-03-24T06:07:57;6.78;;;4.75;;
22240;SDS011;11289;52.524;13.694;2023-03-24T06:10:26;7.90;;;4.40;;
22240;SDS011;11289;52.524;13.694;2023-03-24T06:12:54;6.40;;;4.38;;
22240;SDS011;11289;52.524;13.694;2023-03-24T06:15:21;5.93;;;4.05;;
22240;SDS011;11289;52.524;13.694;2023-03-24T06:17:48;4.88;;;4.05;;
22240;SDS011;11289;52.524;13.694;2023-03-24T06:20:15;5.75;;;4.00;;
22240;SDS011;11289;52.524;13.694;2023-03-24T06:22:43;4.30;;;3.42;;
22240;SDS011;11289;52.524;13.694;2023-03-24T06:25:12;8.43;;;4.25;;
22240;SDS011;11289;52.524;13.694;2023-03-24T06:27:43;6.03;;;4.07;;
22240;SDS011;11289;52.524;13.694;2023-03-24T06:32:40;5.38;;;3.28;;
22240;SDS011;11289;52.524;13.694;2023-03-24T06:35:06;5.97;;;4.18;;
22240;SDS011;11289;52.524;13.694;2023-03-24T06:37:32;6.25;;;4.20;;
22240;SDS011;11289;52.524;13.694;2023-03-24T06:39:58;6.72;;;4.22;;
22240;SDS011;11289;52.524;13.694;2023-03-24T06:42:24;5.32;;;3.85;;
22240;SDS011;11289;52.524;13.694;2023-03-24T06:44:51;5.68;;;3.20;;
22240;SDS011;11289;52.524;13.694;2023-03-24T06:47:17;5.68;;;3.28;;
22240;SDS011;11289;52.524;13.694;2023-03-24T06:49:43;4.28;;;3.17;;
22240;SDS011;11289;52.524;13.694;2023-03-24T06:52:09;4.00;;;3.45;;
22240;SDS011;11289;52.524;13.694;2023-03-24T06:54:35;4.85;;;3.65;;
22240;SDS011;11289;52.524;13.694;2023-03-24T06:57:02;4.38;;;3.30;;
22240;SDS011;11289;52.524;13.694;2023-03-24T06:59:28;5.57;;;3.28;;
22240;SDS011;11289;52.524;13.694;2023-03-24T07:01:54;4.95;;;3.25;;
22240;SDS011;11289;52.524;13.694;2023-03-24T07:04:20;4.45;;;3.60;;
22240;SDS011;11289;52.524;13.694;2023-03-24T07:06:46;3.80;;;3.10;;
22240;SDS011;11289;52.524;13.694;2023-03-24T07:09:12;4.65;;;3.05;;
22240;SDS011;11289;52.524;13.694;2023-03-24T07:11:38;5.25;;;3.50;;
22240;SDS011;11289;52.524;13.694;2023-03-24T07:14:04;5.45;;;3.65;;
22240;SDS011;11289;52.524;13.694;2023-03-24T07:16:30;7.53;;;3.90;;
22240;SDS011;11289;52.524;13.694;2023-03-24T07:18:56;5.95;;;3.05;;
22240;SDS011;11289;52.524;13.694;2023-03-24T07:21:22;6.43;;;3.33;;
22240;SDS011;11289;52.524;13.694;2023-03-24T07:23:48;4.82;;;3.50;;
22240;SDS011;11289;52.524;13.694;2023-03-24T07:26:14;3.45;;;2.97;;
22240;SDS011;11289;52.524;13.694;2023-03-24T07:28:40;6.22;;;4.18;;
22240;SDS011;11289;52.524;13.694;2023-03-24T07:31:06;4.70;;;3.60;;
22240;SDS011;11289;52.524;13.694;2023-03-24T07:33:35;6.53;;;3.95;;
22240;SDS011;11289;52.524;13.694;2023-03-24T07:36:05;5.00;;;3.78;;
22240;SDS011;11289;52.524;13.694;2023-03-24T07:38:32;6.93;;;5.15;;
22240;SDS011;11289;52.524;13.694;2023-03-24T07:40:58;6.88;;;4.93;;
22240;SDS011;11289;52.524;13.694;2023-03-24T07:43:25;7.95;;;4.75;;
22240;SDS011;11289;52.524;13.694;2023-03-24T07:45:51;8.18;;;4.72;;
22240;SDS011;11289;52.524;13.694;2023-03-24T07:48:17;6.15;;;4.07;;
22240;SDS011;11289;52.524;13.694;2023-03-24T07:50:43;5.93;;;4.47;;
22240;SDS011;11289;52.524;13.694;2023-03-24T07:53:09;6.95;;;4.47;;
22240;SDS011;11289;52.524;13.694;2023-03-24T07:55:36;6.78;;;4.20;;
22240;SDS011;11289;52.524;13.694;2023-03-24T07:58:05;6.20;;;4.35;;
22240;SDS011;11289;52.524;13.694;2023-03-24T08:00:31;6.35;;;3.95;;
22240;SDS011;11289;52.524;13.694;2023-03-24T08:02:58;5.45;;;3.42;;
22240;SDS011;11289;52.524;13.694;2023-03-24T08:05:25;8.20;;;4.63;;
22240;SDS011;11289;52.524;13.694;2023-03-24T08:07:54;5.38;;;3.67;;
22240;SDS011;11289;52.524;13.694;2023-03-24T08:10:28;4.05;;;3.28;;
22240;SDS011;11289;52.524;13.694;2023-03-24T08:15:22;5.00;;;3.13;;
22240;SDS011;11289;52.524;13.694;2023-03-24T08:17:49;4.53;;;3.60;;
22240;SDS011;11289;52.524;13.694;2023-03-24T08:20:15;5.85;;;3.20;;
22240;SDS011;11289;52.524;13.694;2023-03-24T08:22:45;6.43;;;3.97;;
22240;SDS011;11289;52.524;13.694;2023-03-24T08:25:15;5.78;;;3.28;;
22240;SDS011;11289;52.524;13.694;2023-03-24T08:27:43;4.72;;;3.03;;
22240;SDS011;11289;52.524;13.694;2023-03-24T08:30:10;4.75;;;3.13;;
22240;SDS011;11289;52.524;13.694;2023-03-24T08:32:43;6.72;;;3.60;;
22240;SDS011;11289;52.524;13.694;2023-03-24T08:35:11;5.82;;;3.33;;
22240;SDS011;11289;52.524;13.694;2023-03-24T08:37:39;5.68;;;3.63;;
22240;SDS011;11289;52.524;13.694;2023-03-24T08:40:10;7.50;;;3.53;;
22240;SDS011;11289;52.524;13.694;2023-03-24T08:42:41;5.45;;;3.70;;
22240;SDS011;11289;52.524;13.694;2023-03-24T08:45:09;5.53;;;3.42;;
22240;SDS011;11289;52.524;13.694;2023-03-24T08:47:36;6.05;;;3.80;;
22240;SDS011;11289;52.524;13.694;2023-03-24T08:50:03;6.40;;;3.85;;
22240;SDS011;11289;52.524;13.694;2023-03-24T08:52:31;4.78;;;3.30;;
22240;SDS011;11289;52.524;13.694;2023-03-24T08:54:57;6.45;;;4.10;;
22240;SDS011;11289;52.524;13.694;2023-03-24T08:57:23;6.57;;;4.03;;
22240;SDS011;11289;52.524;13.694;2023-03-24T08:59:49;4.82;;;3.55;;
22240;SDS011;11289;52.524;13.694;2023-03-24T09:02:15;4.57;;;3.67;;
22240;SDS011;11289;52.524;13.694;2023-03-24T09:04:41;6.82;;;4.05;;
22240;SDS011;11289;52.524;13.694;2023-03-24T09:07:08;6.50;;;4.43;;
22240;SDS011;11289;52.524;13.694;2023-03-24T09:09:34;4.22;;;3.38;;
22240;SDS011;11289;52.524;13.694;2023-03-24T09:12:00;4.78;;;3.70;;
22240;SDS011;11289;52.524;13.694;2023-03-24T09:14:26;5.30;;;3.53;;
22240;SDS011;11289;52.524;13.694;2023-03-24T09:16:52;4.70;;;3.75;;
22240;SDS011;11289;52.524;13.694;2023-03-24T09:19:18;5.72;;;4.13;;
22240;SDS011;11289;52.524;13.694;2023-03-24T09:21:44;7.75;;;3.75;;
22240;SDS011;11289;52.524;13.694;2023-03-24T09:24:11;4.82;;;3.63;;
22240;SDS011;11289;52.524;13.694;2023-03-24T09:26:38;5.95;;;3.97;;
22240;SDS011;11289;52.524;13.694;2023-03-24T09:29:03;5.43;;;3.40;;
22240;SDS011;11289;52.524;13.694;2023-03-24T09:31:29;6.22;;;3.60;;
22240;SDS011;11289;52.524;13.694;2023-03-24T09:33:56;5.28;;;3.42;;
22240;SDS011;11289;52.524;13.694;2023-03-24T09:36:22;4.28;;;3.72;;
22240;SDS011;11289;52.524;13.694;2023-03-24T09:38:48;5.68;;;3.92;;
22240;SDS011;11289;52.524;13.694;2023-03-24T09:41:18;6.05;;;4.07;;
22240;SDS011;11289;52.524;13.694;2023-03-24T09:43:54;10.43;;;4.32;;
22240;SDS011;11289;52.524;13.694;2023-03-24T09:46:40;7.93;;;3.72;;
22240;SDS011;11289;52.524;13.694;2023-03-24T09:49:10;6.47;;;3.88;;
22240;SDS011;11289;52.524;13.694;2023-03-24T09:51:41;6.60;;;4.03;;
22240;SDS011;11289;52.524;13.694;2023-03-24T09:56:53;7.50;;;3.75;;
22240;SDS011;11289;52.524;13.694;2023-03-24T10:01:53;6.53;;;4.35;;
22240;SDS011;11289;52.524;13.694;2023-03-24T10:04:21;7.40;;;4.05;;
22240;SDS011;11289;52.524;13.694;2023-03-24T10:07:06;4.57;;;3.58;;
22240;SDS011;11289;52.524;13.694;2023-03-24T10:09:40;5.68;;;3.75;;
22240;SDS011;11289;52.524;13.694;2023-03-24T10:12:16;8.05;;;4.60;;
22240;SDS011;11289;52.524;13.694;2023-03-24T10:31:33;4.70;;;3.85;;
22240;SDS011;11289;52.524;13.694;2023-03-24T10:34:01;5.70;;;3.80;;
22240;SDS011;11289;52.524;13.694;2023-03-24T10:36:27;6.03;;;3.60;;
22240;SDS011;11289;52.524;13.694;2023-03-24T10:38:53;5.30;;;2.90;;
22240;SDS011;11289;52.524;13.694;2023-03-24T10:41:21;4.75;;;3.15;;
22240;SDS011;11289;52.524;13.694;2023-03-24T10:43:49;5.80;;;3.28;;
22240;SDS011;11289;52.524;13.694;2023-03-24T10:46:17;3.70;;;2.78;;
22240;SDS011;11289;52.524;13.694;2023-03-24T10:48:50;5.20;;;3.03;;
22240;SDS011;11289;52.524;13.694;2023-03-24T10:51:20;6.25;;;3.30;;
22240;SDS011;11289;52.524;13.694;2023-03-24T10:53:51;3.47;;;2.57;;
22240;SDS011;11289;52.524;13.694;2023-03-24T10:59:35;4.80;;;3.20;;
22240;SDS011;11289;52.524;13.694;2023-03-24T11:04:33;4.15;;;2.50;;
22240;SDS011;11289;52.524;13.694;2023-03-24T11:09:40;4.05;;;3.00;;
22240;SDS011;11289;52.524;13.694;2023-03-24T11:15:17;5.65;;;3.28;;
22240;SDS011;11289;52.524;13.694;2023-03-24T11:17:52;3.95;;;2.38;;
22240;SDS011;11289;52.524;13.694;2023-03-24T11:20:26;5.85;;;3.38;;
22240;SDS011;11289;52.524;13.694;2023-03-24T11:22:56;4.80;;;2.85;;
22240;SDS011;11289;52.524;13.694;2023-03-24T11:25:29;3.67;;;2.60;;
22240;SDS011;11289;52.524;13.694;2023-03-24T11:28:07;4.93;;;2.83;;
22240;SDS011;11289;52.524;13.694;2023-03-24T11:30:52;3.65;;;2.58;;
22240;SDS011;11289;52.524;13.694;2023-03-24T11:33:27;4.57;;;2.90;;
22240;SDS011;11289;52.524;13.694;2023-03-24T11:35:58;2.95;;;2.28;;
22240;SDS011;11289;52.524;13.694;2023-03-24T11:38:29;2.72;;;2.15;;
22240;SDS011;11289;52.524;13.694;2023-03-24T11:41:00;3.45;;;2.42;;
22240;SDS011;11289;52.524;13.694;2023-03-24T11:43:29;3.65;;;2.33;;
22240;SDS011;11289;52.524;13.694;2023-03-24T11:46:12;2.85;;;2.00;;
22240;SDS011;11289;52.524;13.694;2023-03-24T11:51:35;3.08;;;1.88;;
22240;SDS011;11289;52.524;13.694;2023-03-24T11:54:13;3.00;;;2.50;;
22240;SDS011;11289;52.524;13.694;2023-03-24T11:56:43;2.72;;;2.00;;
22240;SDS011;11289;52.524;13.694;2023-03-24T11:59:58;2.50;;;1.70;;
22240;SDS011;11289;52.524;13.694;2023-03-24T12:02:11;3.33;;;1.83;;
22240;SDS011;11289;52.524;13.694;2023-03-24T12:13:04;2.03;;;1.73;;
22240;SDS011;11289;52.524;13.694;2023-03-24T12:30:27;5.88;;;1.70;;
22240;SDS011;11289;52.524;13.694;2023-03-24T12:35:59;3.22;;;2.30;;
22240;SDS011;11289;52.524;13.694;2023-03-24T12:38:38;2.42;;;2.05;;
22240;SDS011;11289;52.524;13.694;2023-03-24T12:41:28;5.50;;;2.08;;
22240;SDS011;11289;52.524;13.694;2023-03-24T12:49:39;2.60;;;2.20;;
22240;SDS011;11289;52.524;13.694;2023-03-24T12:55:29;2.97;;;1.60;;
22240;SDS011;11289;52.524;13.694;2023-03-24T12:58:11;2.83;;;2.00;;
22240;SDS011;11289;52.524;13.694;2023-03-24T13:03:20;2.08;;;1.77;;
22240;SDS011;11289;52.524;13.694;2023-03-24T13:05:53;2.80;;;2.03;;
22240;SDS011;11289;52.524;13.694;2023-03-24T13:08:22;2.78;;;1.90;;
22240;SDS011;11289;52.524;13.694;2023-03-24T13:10:57;3.83;;;2.00;;
22240;SDS011;11289;52.524;13.694;2023-03-24T13:13:35;2.33;;;1.83;;
22240;SDS011;11289;52.524;13.694;2023-03-24T13:16:21;3.40;;;2.30;;
22240;SDS011;11289;52.524;13.694;2023-03-24T13:18:53;5.55;;;2.50;;
22240;SDS011;11289;52.524;13.694;2023-03-24T13:21:24;2.70;;;2.05;;
22240;SDS011;11289;52.524;13.694;2023-03-24T13:26:36;4.68;;;2.67;;
22240;SDS011;11289;52.524;13.694;2023-03-24T13:29:11;3.00;;;2.33;;
22240;SDS011;11289;52.524;13.694;2023-03-24T13:32:58;3.30;;;2.15;;
22240;SDS011;11289;52.524;13.694;2023-03-24T13:37:49;4.90;;;2.47;;
22240;SDS011;11289;52.524;13.694;2023-03-24T13:40:37;3.38;;;2.85;;
22240;SDS011;11289;52.524;13.694;2023-03-24T13:43:16;3.40;;;2.75;;
22240;SDS011;11289;52.524;13.694;2023-03-24T13:45:46;3.92;;;3.47;;
22240;SDS011;11289;52.524;13.694;2023-03-24T13:48:22;4.60;;;3.50;;
22240;SDS011;11289;52.524;13.694;2023-03-24T13:50:59;3.17;;;2.88;;
22240;SDS011;11289;52.524;13.694;2023-03-24T13:56:08;5.03;;;3.80;;
22240;SDS011;11289;52.524;13.694;2023-03-24T13:58:46;5.22;;;3.95;;
22240;SDS011;11289;52.524;13.694;2023-03-24T14:01:16;4.90;;;3.28;;
22240;SDS011;11289;52.524;13.694;2023-03-24T14:04:38;5.32;;;3.83;;
22240;SDS011;11289;52.524;13.694;2023-03-24T14:06:52;6.10;;;4.10;;
22240;SDS011;11289;52.524;13.694;2023-03-24T14:09:55;5.35;;;4.25;;
22240;SDS011;11289;52.524;13.694;2023-03-24T14:12:23;4.22;;;3.83;;
22240;SDS011;11289;52.524;13.694;2023-03-24T14:15:10;3.80;;;3.15;;
22240;SDS011;11289;52.524;13.694;2023-03-24T14:17:44;4.40;;;3.13;;
22240;SDS011;11289;52.524;13.694;2023-03-24T14:20:27;3.92;;;2.70;;
22240;SDS011;11289;52.524;13.694;2023-03-24T14:22:58;3.72;;;2.40;;
22240;SDS011;11289;52.524;13.694;2023-03-24T14:25:25;4.03;;;2.42;;
22240;SDS011;11289;52.524;13.694;2023-03-24T14:30:59;4.63;;;2.20;;
22240;SDS011;11289;52.524;13.694;2023-03-24T14:33:28;3.17;;;2.50;;
22240;SDS011;11289;52.524;13.694;2023-03-24T14:36:00;4.32;;;2.33;;
22240;SDS011;11289;52.524;13.694;2023-03-24T14:38:38;2.63;;;1.60;;
22240;SDS011;11289;52.524;13.694;2023-03-24T14:41:07;2.25;;;1.50;;
22240;SDS011;11289;52.524;13.694;2023-03-24T14:46:07;2.97;;;1.60;;
22240;SDS011;11289;52.524;13.694;2023-03-24T14:49:14;1.98;;;1.70;;
22240;SDS011;11289;52.524;13.694;2023-03-24T14:51:53;3.42;;;1.67;;
22240;SDS011;11289;52.524;13.694;2023-03-24T14:54:37;3.05;;;1.58;;
22240;SDS011;11289;52.524;13.694;2023-03-24T14:57:11;3.22;;;1.63;;
22240;SDS011;11289;52.524;13.694;2023-03-24T15:02:40;2.15;;;1.40;;
22240;SDS011;11289;52.524;13.694;2023-03-24T15:10:26;2.80;;;1.70;;
22240;SDS011;11289;52.524;13.694;2023-03-24T15:13:05;1.35;;;1.10;;
22240;SDS011;11289;52.524;13.694;2023-03-24T15:16:27;1.70;;;1.50;;
22240;SDS011;11289;52.524;13.694;2023-03-24T15:18:53;3.42;;;1.73;;
22240;SDS011;11289;52.524;13.694;2023-03-24T15:21:23;2.45;;;1.48;;
22240;SDS011;11289;52.524;13.694;2023-03-24T15:29:41;2.60;;;1.73;;
22240;SDS011;11289;52.524;13.694;2023-03-24T15:32:19;2.53;;;1.60;;
22240;SDS011;11289;52.524;13.694;2023-03-24T15:34:50;5.68;;;1.85;;
22240;SDS011;11289;52.524;13.694;2023-03-24T15:37:22;2.35;;;1.88;;
22240;SDS011;11289;52.524;13.694;2023-03-24T15:39:50;2.42;;;1.67;;
22240;SDS011;11289;52.524;13.694;2023-03-24T15:42:20;4.40;;;1.60;;
22240;SDS011;11289;52.524;13.694;2023-03-24T15:44:47;1.88;;;1.30;;
22240;SDS011;11289;52.524;13.694;2023-03-24T15:49:52;2.17;;;1.25;;
22240;SDS011;11289;52.524;13.694;2023-03-24T15:55:00;4.47;;;0.88;;
22240;SDS011;11289;52.524;13.694;2023-03-24T15:57:38;3.20;;;1.63;;
22240;SDS011;11289;52.524;13.694;2023-03-24T16:00:27;4.22;;;1.45;;
22240;SDS011;11289;52.524;13.694;2023-03-24T16:02:54;6.40;;;1.50;;
22240;SDS011;11289;52.524;13.694;2023-03-24T16:05:25;4.88;;;1.20;;
22240;SDS011;11289;52.524;13.694;2023-03-24T16:08:00;6.03;;;1.65;;
22240;SDS011;11289;52.524;13.694;2023-03-24T16:11:02;3.63;;;1.40;;
22240;SDS011;11289;52.524;13.694;2023-03-24T16:13:32;4.70;;;1.80;;
22240;SDS011;11289;52.524;13.694;2023-03-24T16:16:00;3.60;;;1.88;;
22240;SDS011;11289;52.524;13.694;2023-03-24T16:18:36;6.65;;;1.70;;
22240;SDS011;11289;52.524;13.694;2023-03-24T16:23:41;3.28;;;1.30;;
22240;SDS011;11289;52.524;13.694;2023-03-24T16:26:30;2.78;;;1.30;;
22240;SDS011;11289;52.524;13.694;2023-03-24T16:29:00;2.83;;;1.35;;
22240;SDS011;11289;52.524;13.694;2023-03-24T16:31:39;3.67;;;1.10;;
22240;SDS011;11289;52.524;13.694;2023-03-24T16:34:05;5.10;;;1.52;;
22240;SDS011;11289;52.524;13.694;2023-03-24T16:36:31;6.07;;;1.30;;
22240;SDS011;11289;52.524;13.694;2023-03-24T16:38:59;3.45;;;1.48;;
22240;SDS011;11289;52.524;13.694;2023-03-24T16:41:29;3.45;;;1.42;;
22240;SDS011;11289;52.524;13.694;2023-03-24T16:43:56;2.60;;;1.60;;
22240;SDS011;11289;52.524;13.694;2023-03-24T16:48:51;3.30;;;1.52;;
22240;SDS011;11289;52.524;13.694;2023-03-24T16:51:17;4.75;;;1.73;;
22240;SDS011;11289;52.524;13.694;2023-03-24T16:53:44;4.05;;;1.23;;
22240;SDS011;11289;52.524;13.694;2023-03-24T16:56:11;5.60;;;1.55;;
22240;SDS011;11289;52.524;13.694;2023-03-24T16:58:39;6.55;;;1.50;;
22240;SDS011;11289;52.524;13.694;2023-03-24T17:01:40;7.50;;;1.75;;
22240;SDS011;11289;52.524;13.694;2023-03-24T17:04:05;5.30;;;1.63;;
22240;SDS011;11289;52.524;13.694;2023-03-24T17:06:43;3.10;;;1.55;;
22240;SDS011;11289;52.524;13.694;2023-03-24T17:09:15;2.75;;;1.40;;
22240;SDS011;11289;52.524;13.694;2023-03-24T17:11:42;3.92;;;1.92;;
22240;SDS011;11289;52.524;13.694;2023-03-24T17:14:12;6.78;;;2.72;;
22240;SDS011;11289;52.524;13.694;2023-03-24T17:16:40;3.30;;;2.22;;
22240;SDS011;11289;52.524;13.694;2023-03-24T17:19:10;6.50;;;2.28;;
22240;SDS011;11289;52.524;13.694;2023-03-24T17:21:48;4.90;;;2.05;;
22240;SDS011;11289;52.524;13.694;2023-03-24T17:24:22;4.13;;;2.45;;
22240;SDS011;11289;52.524;13.694;2023-03-24T17:26:48;4.72;;;2.22;;
22240;SDS011;11289;52.524;13.694;2023-03-24T17:29:14;7.90;;;2.78;;
22240;SDS011;11289;52.524;13.694;2023-03-24T17:31:40;5.85;;;2.70;;
22240;SDS011;11289;52.524;13.694;2023-03-24T17:34:10;7.88;;;2.10;;
22240;SDS011;11289;52.524;13.694;2023-03-24T17:36:38;7.68;;;4.05;;
22240;SDS011;11289;52.524;13.694;2023-03-24T17:39:04;5.93;;;4.72;;
22240;SDS011;11289;52.524;13.694;2023-03-24T17:41:35;5.35;;;3.78;;
22240;SDS011;11289;52.524;13.694;2023-03-24T17:44:01;6.80;;;4.00;;
22240;SDS011;11289;52.524;13.694;2023-03-24T17:46:27;8.65;;;3.92;;
22240;SDS011;11289;52.524;13.694;2023-03-24T17:48:53;6.72;;;4.25;;
22240;SDS011;11289;52.524;13.694;2023-03-24T17:51:20;7.78;;;4.25;;
22240;SDS011;11289;52.524;13.694;2023-03-24T17:53:46;5.35;;;3.80;;